createdAt,value
2023-05-05T00:00:20.318Z,18.77
2023-05-05T00:01:20.314Z,18.74
2023-05-05T00:02:20.357Z,18.70
2023-05-05T00:03:20.400Z,18.64
2023-05-05T00:04:20.433Z,18.59
2023-05-05T00:05:20.367Z,18.54
2023-05-05T00:06:20.276Z,18.52
2023-05-05T00:07:20.347Z,18.50
2023-05-05T00:08:20.358Z,18.48
2023-05-05T00:09:20.361Z,18.47
2023-05-05T00:10:20.376Z,18.46
2023-05-05T00:11:20.306Z,18.43
2023-05-05T00:12:20.331Z,18.40
2023-05-05T00:13:20.377Z,18.37
2023-05-05T00:14:20.338Z,18.35
2023-05-05T00:15:20.346Z,18.36
2023-05-05T00:16:20.497Z,18.35
2023-05-05T00:17:20.980Z,18.32
2023-05-05T00:18:20.386Z,18.27
2023-05-05T00:19:20.313Z,18.23
2023-05-05T00:20:20.382Z,18.20
2023-05-05T00:21:20.366Z,18.18
2023-05-05T00:22:20.392Z,18.15
2023-05-05T00:23:20.417Z,18.13
2023-05-05T00:24:20.322Z,18.12
2023-05-05T00:25:20.400Z,18.11
2023-05-05T00:26:20.380Z,18.10
2023-05-05T00:27:20.376Z,18.09
2023-05-05T00:28:20.386Z,18.07
2023-05-05T00:29:20.333Z,18.05
2023-05-05T00:31:20.374Z,18.01
2023-05-05T00:32:20.422Z,17.97
2023-05-05T00:33:20.369Z,17.95
2023-05-05T00:34:20.418Z,17.92
2023-05-05T00:36:20.392Z,17.90
2023-05-05T00:38:20.408Z,17.89
2023-05-05T00:39:20.398Z,17.88
2023-05-05T00:40:20.428Z,17.89
2023-05-05T00:41:20.424Z,17.90
2023-05-05T00:42:20.408Z,17.91
2023-05-05T00:43:20.450Z,17.88
2023-05-05T00:44:20.420Z,17.82
2023-05-05T00:45:20.370Z,17.81
2023-05-05T00:46:20.571Z,17.80
2023-05-05T00:47:20.451Z,17.78
2023-05-05T00:49:20.491Z,17.77
2023-05-05T00:51:20.431Z,17.79
2023-05-05T00:53:20.485Z,17.78
2023-05-05T00:54:21.208Z,17.76
2023-05-05T00:55:20.405Z,17.72
2023-05-05T00:56:20.427Z,17.70
2023-05-05T00:57:20.452Z,17.71
2023-05-05T00:58:20.434Z,17.69
2023-05-05T00:59:20.461Z,17.67
2023-05-05T01:00:20.498Z,17.66
2023-05-05T01:02:20.496Z,17.64
2023-05-05T01:03:20.578Z,17.61
2023-05-05T01:04:20.464Z,17.60
2023-05-05T01:05:20.458Z,17.59
2023-05-05T01:06:20.635Z,17.58
2023-05-05T01:07:20.471Z,17.56
2023-05-05T01:09:20.505Z,17.57
2023-05-05T01:10:21.009Z,17.55
2023-05-05T01:11:20.499Z,17.56
2023-05-05T01:12:20.514Z,17.57
2023-05-05T01:13:20.449Z,17.59
2023-05-05T01:14:20.517Z,17.62
2023-05-05T01:15:20.501Z,17.63
2023-05-05T01:16:20.512Z,17.53
2023-05-05T01:17:20.542Z,17.50
2023-05-05T01:18:20.497Z,17.48
2023-05-05T01:19:20.538Z,17.44
2023-05-05T01:20:20.507Z,17.43
2023-05-05T01:21:20.481Z,17.42
2023-05-05T01:22:20.553Z,17.40
2023-05-05T01:23:20.534Z,17.38
2023-05-05T01:24:20.541Z,17.37
2023-05-05T01:25:20.542Z,17.36
2023-05-05T01:26:20.513Z,17.37
2023-05-05T01:27:20.520Z,17.33
2023-05-05T01:28:20.580Z,17.31
2023-05-05T01:29:20.571Z,17.29
2023-05-05T01:30:20.531Z,17.30
2023-05-05T01:31:21.399Z,17.31
2023-05-05T01:32:20.563Z,17.33
2023-05-05T01:33:20.581Z,17.34
2023-05-05T01:34:20.519Z,17.36
2023-05-05T01:36:20.550Z,17.40
2023-05-05T01:38:20.547Z,17.41
2023-05-05T01:39:20.539Z,17.40
2023-05-05T01:40:20.560Z,17.33
2023-05-05T01:41:20.560Z,17.21
2023-05-05T01:42:20.535Z,17.12
2023-05-05T01:43:20.553Z,17.05
2023-05-05T01:46:20.654Z,17.07
2023-05-05T01:47:20.543Z,17.08
2023-05-05T01:48:20.602Z,17.13
2023-05-05T01:49:20.586Z,17.16
2023-05-05T01:50:20.576Z,17.19
2023-05-05T01:51:20.597Z,17.20
2023-05-05T01:52:20.558Z,17.22
2023-05-05T01:53:20.587Z,17.25
2023-05-05T01:54:20.562Z,17.29
2023-05-05T01:55:20.642Z,17.31
2023-05-05T01:56:20.615Z,17.32
2023-05-05T01:57:20.557Z,17.25
2023-05-05T01:58:20.633Z,17.23
2023-05-05T01:59:20.616Z,17.20
2023-05-05T02:00:20.582Z,17.15
2023-05-05T02:01:20.665Z,17.12
2023-05-05T02:02:20.655Z,17.14
2023-05-05T02:03:20.738Z,17.12
2023-05-05T02:04:20.625Z,17.07
2023-05-05T02:05:20.585Z,17.03
2023-05-05T02:07:20.677Z,17.04
2023-05-05T02:08:21.578Z,17.03
2023-05-05T02:09:20.655Z,17.06
2023-05-05T02:10:20.599Z,17.07
2023-05-05T02:12:20.642Z,17.10
2023-05-05T02:13:20.719Z,17.12
2023-05-05T02:15:20.681Z,17.11
2023-05-05T02:16:20.720Z,17.12
2023-05-05T02:17:20.629Z,17.10
2023-05-05T02:18:20.612Z,17.09
2023-05-05T02:19:20.681Z,17.06
2023-05-05T02:20:20.678Z,17.00
2023-05-05T02:21:20.685Z,16.96
2023-05-05T02:22:20.659Z,16.94
2023-05-05T02:24:20.692Z,16.95
2023-05-05T02:25:20.673Z,16.96
2023-05-05T02:29:20.704Z,16.98
2023-05-05T02:30:20.752Z,16.97
2023-05-05T02:31:20.746Z,16.99
2023-05-05T02:32:20.763Z,17.00
2023-05-05T02:34:20.727Z,16.98
2023-05-05T02:36:20.701Z,16.97
2023-05-05T02:37:20.706Z,16.96
2023-05-05T02:39:20.683Z,16.97
2023-05-05T02:43:20.788Z,16.95
2023-05-05T02:44:20.695Z,16.96
2023-05-05T02:45:21.967Z,16.92
2023-05-05T02:46:20.738Z,16.88
2023-05-05T02:47:20.732Z,16.84
2023-05-05T02:48:20.743Z,16.83
2023-05-05T02:49:20.744Z,16.84
2023-05-05T02:50:20.733Z,16.82
2023-05-05T02:52:20.703Z,16.83
2023-05-05T02:53:20.742Z,16.81
2023-05-05T02:54:20.725Z,16.79
2023-05-05T02:55:20.751Z,16.80
2023-05-05T02:57:20.796Z,16.79
2023-05-05T02:58:20.763Z,16.75
2023-05-05T03:01:20.812Z,16.77
2023-05-05T03:02:20.805Z,16.73
2023-05-05T03:03:20.797Z,16.65
2023-05-05T03:04:20.765Z,16.63
2023-05-05T03:05:20.808Z,16.64
2023-05-05T03:06:20.771Z,16.62
2023-05-05T03:07:20.905Z,16.61
2023-05-05T03:08:20.787Z,16.60
2023-05-05T03:09:20.789Z,16.59
2023-05-05T03:10:20.785Z,16.61
2023-05-05T03:11:20.790Z,16.63
2023-05-05T03:12:20.833Z,16.65
2023-05-05T03:13:20.810Z,16.66
2023-05-05T03:14:20.775Z,16.69
2023-05-05T03:15:20.794Z,16.72
2023-05-05T03:16:20.827Z,16.73
2023-05-05T03:17:20.819Z,16.70
2023-05-05T03:18:20.829Z,16.71
2023-05-05T03:19:20.852Z,16.73
2023-05-05T03:20:20.777Z,16.76
2023-05-05T03:21:20.809Z,16.80
2023-05-05T03:22:22.201Z,16.83
2023-05-05T03:24:20.826Z,16.86
2023-05-05T03:25:20.784Z,16.87
2023-05-05T03:26:20.853Z,16.88
2023-05-05T03:27:20.853Z,16.90
2023-05-05T03:28:20.831Z,16.94
2023-05-05T03:29:20.868Z,16.95
2023-05-05T03:30:20.838Z,16.96
2023-05-05T03:31:20.821Z,16.98
2023-05-05T03:32:20.839Z,16.99
2023-05-05T03:33:20.809Z,17.00
2023-05-05T03:34:20.871Z,16.97
2023-05-05T03:35:20.855Z,16.94
2023-05-05T03:36:20.849Z,16.92
2023-05-05T03:37:20.845Z,16.91
2023-05-05T03:38:20.844Z,16.93
2023-05-05T03:39:20.865Z,16.94
2023-05-05T03:40:27.198Z,16.92
2023-05-05T03:41:20.847Z,16.93
2023-05-05T03:42:20.895Z,16.92
2023-05-05T03:43:20.886Z,16.93
2023-05-05T03:44:20.890Z,16.96
2023-05-05T03:45:20.886Z,16.97
2023-05-05T03:46:20.895Z,16.99
2023-05-05T03:48:20.881Z,16.88
2023-05-05T03:49:20.923Z,16.82
2023-05-05T03:50:20.874Z,16.76
2023-05-05T03:51:20.889Z,16.72
2023-05-05T03:52:20.907Z,16.70
2023-05-05T03:53:20.900Z,16.71
2023-05-05T03:54:20.899Z,16.74
2023-05-05T03:55:20.927Z,16.76
2023-05-05T03:56:20.903Z,16.81
2023-05-05T03:57:20.905Z,16.83
2023-05-05T03:58:20.902Z,16.86
2023-05-05T03:59:22.372Z,16.90
2023-05-05T04:00:20.927Z,16.92
2023-05-05T04:02:21.059Z,16.91
2023-05-05T04:03:21.031Z,16.93
2023-05-05T04:04:21.006Z,16.95
2023-05-05T04:05:20.951Z,16.97
2023-05-05T04:06:20.925Z,16.99
2023-05-05T04:08:20.967Z,17.01
2023-05-05T04:09:20.960Z,17.02
2023-05-05T04:10:21.022Z,16.98
2023-05-05T04:11:20.981Z,16.93
2023-05-05T04:12:20.949Z,16.79
2023-05-05T04:13:20.992Z,16.73
2023-05-05T04:15:20.928Z,16.75
2023-05-05T04:16:21.036Z,16.78
2023-05-05T04:17:20.988Z,16.81
2023-05-05T04:18:20.951Z,16.85
2023-05-05T04:19:20.958Z,16.90
2023-05-05T04:20:20.969Z,16.93
2023-05-05T04:21:20.990Z,16.95
2023-05-05T04:23:21.012Z,16.98
2023-05-05T04:24:21.074Z,17.01
2023-05-05T04:25:20.981Z,17.02
2023-05-05T04:26:21.035Z,17.01
2023-05-05T04:27:21.006Z,17.03
2023-05-05T04:30:21.003Z,17.02
2023-05-05T04:31:21.067Z,16.81
2023-05-05T04:32:21.006Z,16.61
2023-05-05T04:33:20.960Z,16.56
2023-05-05T04:34:21.047Z,16.57
2023-05-05T04:35:21.040Z,16.60
2023-05-05T04:36:22.566Z,16.64
2023-05-05T04:39:21.012Z,16.67
2023-05-05T04:40:21.013Z,16.71
2023-05-05T04:41:20.995Z,16.76
2023-05-05T04:42:21.018Z,16.81
2023-05-05T04:43:21.003Z,16.86
2023-05-05T04:44:21.026Z,16.91
2023-05-05T04:45:21.031Z,16.96
2023-05-05T04:46:21.013Z,17.02
2023-05-05T04:47:21.041Z,17.07
2023-05-05T04:48:21.047Z,17.12
2023-05-05T04:49:21.034Z,17.17
2023-05-05T04:50:21.041Z,17.20
2023-05-05T04:51:21.013Z,17.24
2023-05-05T04:52:21.053Z,17.28
2023-05-05T04:53:21.059Z,17.30
2023-05-05T04:54:21.049Z,17.31
2023-05-05T04:55:21.086Z,17.33
2023-05-05T04:56:21.104Z,17.34
2023-05-05T04:57:21.090Z,17.37
2023-05-05T04:58:21.071Z,17.40
2023-05-05T04:59:21.052Z,17.46
2023-05-05T05:00:21.084Z,17.49
2023-05-05T05:01:21.097Z,17.51
2023-05-05T05:02:21.227Z,17.54
2023-05-05T05:03:21.214Z,17.56
2023-05-05T05:04:21.054Z,17.60
2023-05-05T05:05:21.053Z,17.61
2023-05-05T05:06:21.145Z,17.65
2023-05-05T05:07:21.062Z,17.67
2023-05-05T05:08:21.118Z,17.69
2023-05-05T05:09:21.100Z,17.71
2023-05-05T05:10:21.093Z,17.73
2023-05-05T05:12:21.066Z,17.74
2023-05-05T05:13:22.899Z,17.77
2023-05-05T05:15:21.112Z,17.76
2023-05-05T05:17:21.077Z,17.75
2023-05-05T05:18:21.145Z,17.76
2023-05-05T05:19:21.095Z,17.79
2023-05-05T05:20:21.115Z,17.82
2023-05-05T05:21:21.114Z,17.86
2023-05-05T05:22:21.161Z,17.91
2023-05-05T05:23:21.125Z,17.95
2023-05-05T05:24:21.163Z,17.98
2023-05-05T05:25:21.099Z,18.02
2023-05-05T05:26:21.133Z,18.09
2023-05-05T05:27:21.132Z,18.13
2023-05-05T05:28:21.155Z,18.15
2023-05-05T05:29:21.135Z,18.17
2023-05-05T05:30:21.116Z,18.21
2023-05-05T05:31:21.197Z,18.26
2023-05-05T05:32:21.185Z,18.33
2023-05-05T05:33:21.113Z,18.37
2023-05-05T05:34:21.166Z,18.42
2023-05-05T05:35:21.169Z,18.47
2023-05-05T05:36:21.202Z,18.53
2023-05-05T05:37:21.197Z,18.59
2023-05-05T05:38:21.160Z,18.63
2023-05-05T05:39:21.172Z,18.68
2023-05-05T05:40:21.182Z,18.69
2023-05-05T05:41:21.192Z,18.70
2023-05-05T05:42:21.169Z,18.74
2023-05-05T05:43:21.135Z,18.80
2023-05-05T05:44:21.202Z,18.86
2023-05-05T05:45:21.175Z,18.93
2023-05-05T05:46:21.321Z,18.98
2023-05-05T05:47:21.215Z,19.01
2023-05-05T05:48:21.185Z,19.06
2023-05-05T05:49:21.188Z,18.96
2023-05-05T05:50:22.970Z,18.84
2023-05-05T05:51:21.152Z,18.80
2023-05-05T05:52:21.196Z,18.82
2023-05-05T05:53:21.245Z,18.86
2023-05-05T05:54:21.215Z,18.96
2023-05-05T05:55:21.304Z,19.11
2023-05-05T05:56:21.158Z,19.22
2023-05-05T05:57:21.234Z,19.35
2023-05-05T05:58:21.203Z,19.47
2023-05-05T05:59:21.240Z,19.55
2023-05-05T06:00:21.236Z,19.60
2023-05-05T06:01:21.219Z,19.67
2023-05-05T06:02:21.258Z,19.75
2023-05-05T06:03:21.421Z,19.84
2023-05-05T06:04:21.271Z,19.93
2023-05-05T06:05:21.237Z,20.01
2023-05-05T06:07:21.269Z,19.94
2023-05-05T06:09:21.195Z,19.95
2023-05-05T06:11:21.266Z,20.09
2023-05-05T06:12:21.233Z,20.17
2023-05-05T06:13:21.253Z,20.24
2023-05-05T06:14:21.252Z,20.29
2023-05-05T06:15:21.301Z,20.31
2023-05-05T06:16:21.293Z,20.39
2023-05-05T06:17:21.216Z,20.50
2023-05-05T06:18:21.304Z,20.61
2023-05-05T06:19:21.297Z,20.72
2023-05-05T06:20:21.295Z,20.82
2023-05-05T06:21:21.292Z,20.88
2023-05-05T06:22:21.264Z,20.95
2023-05-05T06:23:21.325Z,20.98
2023-05-05T06:24:21.274Z,21.01
2023-05-05T06:25:21.249Z,21.06
2023-05-05T06:26:21.283Z,20.96
2023-05-05T06:27:23.141Z,20.86
2023-05-05T06:28:21.298Z,20.88
2023-05-05T06:29:21.314Z,20.94
2023-05-05T06:30:21.280Z,21.05
2023-05-05T06:31:21.343Z,21.15
2023-05-05T06:32:21.327Z,21.29
2023-05-05T06:33:21.336Z,21.33
2023-05-05T06:34:21.325Z,21.27
2023-05-05T06:35:21.291Z,21.12
2023-05-05T06:36:21.330Z,21.02
2023-05-05T06:37:21.304Z,21.10
2023-05-05T06:38:21.332Z,21.15
2023-05-05T06:39:21.341Z,21.25
2023-05-05T06:40:21.285Z,21.30
2023-05-05T06:41:21.290Z,21.42
2023-05-05T06:42:21.336Z,21.53
2023-05-05T06:43:21.322Z,21.64
2023-05-05T06:44:21.366Z,21.79
2023-05-05T06:45:21.370Z,21.89
2023-05-05T06:46:21.405Z,22.00
2023-05-05T06:47:21.359Z,22.09
2023-05-05T06:48:21.305Z,22.19
2023-05-05T06:49:21.337Z,22.28
2023-05-05T06:50:21.370Z,22.37
2023-05-05T06:51:21.351Z,22.41
2023-05-05T06:52:21.390Z,22.39
2023-05-05T06:53:21.321Z,22.43
2023-05-05T06:54:21.382Z,22.50
2023-05-05T06:55:21.412Z,22.56
2023-05-05T06:56:21.348Z,22.67
2023-05-05T06:57:21.360Z,22.80
2023-05-05T06:58:21.394Z,22.93
2023-05-05T06:59:21.401Z,23.02
2023-05-05T07:00:21.416Z,23.07
2023-05-05T07:01:21.388Z,22.91
2023-05-05T07:02:21.380Z,22.84
2023-05-05T07:03:21.516Z,22.91
2023-05-05T07:04:23.327Z,23.04
2023-05-05T07:05:21.457Z,23.18
2023-05-05T07:06:21.416Z,23.19
2023-05-05T07:07:21.397Z,23.23
2023-05-05T07:08:21.409Z,23.36
2023-05-05T07:09:21.356Z,23.51
2023-05-05T07:11:21.448Z,23.42
2023-05-05T07:12:21.444Z,23.46
2023-05-05T07:13:21.419Z,23.49
2023-05-05T07:14:24.166Z,23.61
2023-05-05T07:15:27.606Z,23.73
2023-05-05T07:16:21.470Z,23.52
2023-05-05T07:17:21.461Z,23.50
2023-05-05T07:18:21.396Z,23.64
2023-05-05T07:19:21.426Z,23.78
2023-05-05T07:20:21.428Z,23.85
2023-05-05T07:21:21.431Z,23.84
2023-05-05T07:22:21.415Z,23.83
2023-05-05T07:23:21.475Z,23.90
2023-05-05T07:24:21.457Z,24.03
2023-05-05T07:25:21.409Z,24.19
2023-05-05T07:26:21.473Z,24.32
2023-05-05T07:27:21.429Z,24.45
2023-05-05T07:28:21.485Z,24.56
2023-05-05T07:29:21.456Z,24.67
2023-05-05T07:30:21.568Z,24.77
2023-05-05T07:31:21.484Z,24.91
2023-05-05T07:32:21.607Z,25.04
2023-05-05T07:33:21.461Z,25.15
2023-05-05T07:34:21.477Z,25.20
2023-05-05T07:35:21.430Z,25.19
2023-05-05T07:36:21.461Z,25.26
2023-05-05T07:37:21.468Z,25.28
2023-05-05T07:38:21.442Z,25.00
2023-05-05T07:39:21.501Z,24.85
2023-05-05T07:40:21.451Z,24.89
2023-05-05T07:41:23.563Z,25.02
2023-05-05T07:42:21.510Z,25.20
2023-05-05T07:43:21.480Z,25.41
2023-05-05T07:44:21.492Z,25.64
2023-05-05T07:45:21.512Z,25.81
2023-05-05T07:46:21.577Z,26.00
2023-05-05T07:47:21.531Z,26.15
2023-05-05T07:48:21.525Z,26.28
2023-05-05T07:49:21.712Z,26.37
2023-05-05T07:50:21.511Z,26.49
2023-05-05T07:51:21.481Z,26.62
2023-05-05T07:52:25.221Z,26.71
2023-05-05T07:53:21.516Z,26.83
2023-05-05T07:54:21.512Z,26.94
2023-05-05T07:55:21.516Z,27.03
2023-05-05T07:56:21.928Z,27.10
2023-05-05T07:57:21.508Z,27.17
2023-05-05T07:58:21.542Z,27.21
2023-05-05T07:59:21.543Z,27.25
2023-05-05T08:00:21.551Z,27.28
2023-05-05T08:01:21.490Z,27.27
2023-05-05T08:02:21.612Z,27.18
2023-05-05T08:03:21.674Z,26.96
2023-05-05T08:04:21.495Z,26.91
2023-05-05T08:05:21.544Z,26.97
2023-05-05T08:06:21.576Z,27.06
2023-05-05T08:07:21.610Z,27.15
2023-05-05T08:08:21.552Z,27.24
2023-05-05T08:09:21.528Z,27.32
2023-05-05T08:10:21.594Z,27.41
2023-05-05T08:11:21.557Z,27.52
2023-05-05T08:12:21.567Z,27.63
2023-05-05T08:13:21.577Z,27.72
2023-05-05T08:14:21.573Z,27.85
2023-05-05T08:15:21.612Z,27.97
2023-05-05T08:16:21.639Z,28.04
2023-05-05T08:17:21.580Z,28.13
2023-05-05T08:18:23.776Z,28.18
2023-05-05T08:19:28.851Z,28.22
2023-05-05T08:21:21.617Z,28.27
2023-05-05T08:22:21.560Z,28.30
2023-05-05T08:23:21.603Z,28.33
2023-05-05T08:24:21.577Z,28.37
2023-05-05T08:25:21.612Z,28.42
2023-05-05T08:26:21.613Z,28.49
2023-05-05T08:27:21.564Z,28.58
2023-05-05T08:28:21.614Z,28.64
2023-05-05T08:29:21.623Z,28.73
2023-05-05T08:30:21.590Z,28.77
2023-05-05T08:31:21.690Z,28.89
2023-05-05T08:32:21.641Z,28.97
2023-05-05T08:33:21.653Z,29.02
2023-05-05T08:34:21.645Z,29.05
2023-05-05T08:35:21.591Z,29.10
2023-05-05T08:36:21.625Z,29.14
2023-05-05T08:37:21.638Z,29.20
2023-05-05T08:38:21.609Z,29.27
2023-05-05T08:39:21.657Z,29.33
2023-05-05T08:40:21.670Z,29.37
2023-05-05T08:41:21.681Z,29.35
2023-05-05T08:42:35.488Z,29.38
2023-05-05T08:43:21.607Z,29.44
2023-05-05T08:44:21.649Z,29.52
2023-05-05T08:45:21.621Z,29.59
2023-05-05T08:46:21.693Z,29.66
2023-05-05T08:47:21.657Z,29.58
2023-05-05T08:48:21.616Z,29.36
2023-05-05T08:49:21.676Z,29.27
2023-05-05T08:50:21.710Z,29.26
2023-05-05T08:51:21.626Z,29.22
2023-05-05T08:53:21.680Z,29.25
2023-05-05T08:54:21.672Z,29.27
2023-05-05T08:55:23.928Z,29.16
2023-05-05T08:56:21.657Z,29.15
2023-05-05T08:57:21.676Z,29.17
2023-05-05T08:58:21.718Z,29.19
2023-05-05T08:59:21.726Z,29.25
2023-05-05T09:00:21.723Z,29.31
2023-05-05T09:01:21.711Z,29.39
2023-05-05T09:02:21.771Z,29.44
2023-05-05T09:03:21.764Z,29.53
2023-05-05T09:04:21.677Z,29.57
2023-05-05T09:05:21.708Z,29.54
2023-05-05T09:06:21.743Z,29.39
2023-05-05T09:07:21.707Z,29.20
2023-05-05T09:08:21.706Z,29.16
2023-05-05T09:09:21.685Z,29.19
2023-05-05T09:10:21.781Z,29.24
2023-05-05T09:11:21.711Z,29.31
2023-05-05T09:12:21.752Z,29.39
2023-05-05T09:13:21.751Z,29.46
2023-05-05T09:14:21.736Z,29.45
2023-05-05T09:15:21.759Z,29.32
2023-05-05T09:17:21.747Z,29.29
2023-05-05T09:18:21.743Z,29.24
2023-05-05T09:19:21.713Z,29.34
2023-05-05T09:20:21.802Z,29.43
2023-05-05T09:21:21.768Z,29.58
2023-05-05T09:22:21.727Z,29.69
2023-05-05T09:23:21.767Z,29.79
2023-05-05T09:24:21.782Z,29.88
2023-05-05T09:25:21.795Z,29.84
2023-05-05T09:26:21.780Z,29.83
2023-05-05T09:28:21.764Z,29.79
2023-05-05T09:29:21.777Z,29.82
2023-05-05T09:30:21.732Z,29.84
2023-05-05T09:31:21.819Z,29.86
2023-05-05T09:32:24.105Z,29.91
2023-05-05T09:33:21.790Z,29.98
2023-05-05T09:34:21.777Z,29.99
2023-05-05T09:35:21.737Z,29.92
2023-05-05T09:36:21.832Z,29.88
2023-05-05T09:37:21.819Z,29.87
2023-05-05T09:38:21.794Z,29.94
2023-05-05T09:39:21.782Z,30.02
2023-05-05T09:40:21.844Z,30.04
2023-05-05T09:41:21.819Z,30.05
2023-05-05T09:43:21.820Z,29.98
2023-05-05T09:44:21.812Z,29.78
2023-05-05T09:45:21.841Z,29.61
2023-05-05T09:46:21.865Z,29.31
2023-05-05T09:47:29.373Z,29.12
2023-05-05T09:48:21.817Z,29.15
2023-05-05T09:49:21.847Z,29.04
2023-05-05T09:50:21.852Z,28.96
2023-05-05T09:51:21.851Z,29.02
2023-05-05T09:52:21.824Z,29.09
2023-05-05T09:53:21.866Z,29.25
2023-05-05T09:54:21.866Z,29.42
2023-05-05T09:55:21.827Z,29.62
2023-05-05T09:56:21.871Z,29.79
2023-05-05T09:57:21.839Z,29.91
2023-05-05T09:58:21.906Z,30.02
2023-05-05T09:59:21.878Z,30.08
2023-05-05T10:00:21.964Z,30.14
2023-05-05T10:01:21.880Z,30.22
2023-05-05T10:02:21.881Z,30.31
2023-05-05T10:03:21.886Z,30.32
2023-05-05T10:04:21.934Z,30.20
2023-05-05T10:05:21.960Z,30.19
2023-05-05T10:06:21.844Z,30.17
2023-05-05T10:07:21.844Z,29.98
2023-05-05T10:08:21.873Z,29.84
2023-05-05T10:09:24.320Z,29.69
2023-05-05T10:10:22.053Z,29.42
2023-05-05T10:11:21.886Z,29.01
2023-05-05T10:12:21.905Z,28.64
2023-05-05T10:13:21.910Z,28.26
2023-05-05T10:14:21.875Z,27.97
2023-05-05T10:15:21.900Z,27.78
2023-05-05T10:16:22.087Z,27.73
2023-05-05T10:17:21.898Z,27.85
2023-05-05T10:18:21.938Z,28.03
2023-05-05T10:19:21.860Z,28.22
2023-05-05T10:20:21.929Z,28.41
2023-05-05T10:21:21.860Z,28.60
2023-05-05T10:22:21.899Z,28.73
2023-05-05T10:23:21.911Z,28.89
2023-05-05T10:24:21.899Z,28.98
2023-05-05T10:25:21.906Z,29.04
2023-05-05T10:26:21.945Z,29.09
2023-05-05T10:27:21.900Z,29.13
2023-05-05T10:28:21.991Z,29.09
2023-05-05T10:29:22.007Z,29.05
2023-05-05T10:30:21.944Z,28.79
2023-05-05T10:31:26.515Z,28.65
2023-05-05T10:34:21.981Z,28.80
2023-05-05T10:35:21.958Z,28.91
2023-05-05T10:36:21.991Z,29.00
2023-05-05T10:37:21.944Z,29.11
2023-05-05T10:38:22.729Z,29.18
2023-05-05T10:39:21.980Z,29.25
2023-05-05T10:40:21.930Z,29.34
2023-05-05T10:41:22.007Z,29.40
2023-05-05T10:42:21.987Z,29.41
2023-05-05T10:43:21.927Z,29.42
2023-05-05T10:44:21.965Z,29.47
2023-05-05T10:45:22.033Z,29.51
2023-05-05T10:46:24.551Z,29.53
2023-05-05T10:47:22.054Z,29.48
2023-05-05T10:48:21.964Z,29.49
2023-05-05T10:49:21.959Z,29.50
2023-05-05T10:50:21.996Z,29.51
2023-05-05T10:51:35.229Z,29.55
2023-05-05T10:52:21.990Z,29.61
2023-05-05T10:53:21.964Z,29.65
2023-05-05T10:54:22.041Z,29.71
2023-05-05T10:55:22.027Z,29.67
2023-05-05T10:56:22.018Z,29.65
2023-05-05T10:57:22.043Z,29.45
2023-05-05T10:58:21.989Z,29.24
2023-05-05T10:59:22.012Z,29.18
2023-05-05T11:00:22.037Z,29.22
2023-05-05T11:01:22.023Z,29.30
2023-05-05T11:02:22.020Z,29.41
2023-05-05T11:03:22.209Z,29.52
2023-05-05T11:04:22.065Z,29.62
2023-05-05T11:05:22.025Z,29.72
2023-05-05T11:06:21.990Z,29.83
2023-05-05T11:07:22.056Z,29.91
2023-05-05T11:08:22.038Z,29.94
2023-05-05T11:09:22.035Z,29.98
2023-05-05T11:10:22.070Z,30.03
2023-05-05T11:11:22.026Z,30.07
2023-05-05T11:12:22.051Z,30.09
2023-05-05T11:13:22.132Z,30.14
2023-05-05T11:15:22.071Z,30.11
2023-05-05T11:16:22.069Z,30.07
2023-05-05T11:17:22.076Z,30.04
2023-05-05T11:18:22.077Z,30.05
2023-05-05T11:19:22.027Z,30.01
2023-05-05T11:20:22.083Z,29.92
2023-05-05T11:21:22.097Z,29.80
2023-05-05T11:22:22.082Z,29.75
2023-05-05T11:23:24.715Z,29.68
2023-05-05T11:24:22.044Z,29.66
2023-05-05T11:25:22.077Z,29.70
2023-05-05T11:26:22.106Z,29.69
2023-05-05T11:27:22.051Z,29.62
2023-05-05T11:28:22.054Z,29.51
2023-05-05T11:29:22.050Z,29.46
2023-05-05T11:30:22.092Z,29.41
2023-05-05T11:31:22.163Z,29.44
2023-05-05T11:32:22.051Z,29.49
2023-05-05T11:33:22.127Z,29.56
2023-05-05T11:34:22.120Z,29.57
2023-05-05T11:35:22.137Z,29.60
2023-05-05T11:36:22.099Z,29.69
2023-05-05T11:37:22.079Z,29.79
2023-05-05T11:38:22.114Z,29.86
2023-05-05T11:39:22.113Z,29.91
2023-05-05T11:40:22.139Z,29.96
2023-05-05T11:41:22.168Z,30.02
2023-05-05T11:42:22.106Z,30.08
2023-05-05T11:43:22.178Z,30.05
2023-05-05T11:44:22.146Z,29.90
2023-05-05T11:45:22.108Z,29.75
2023-05-05T11:46:22.190Z,29.61
2023-05-05T11:47:22.160Z,29.55
2023-05-05T11:49:22.137Z,29.58
2023-05-05T11:50:22.150Z,29.65
2023-05-05T11:52:22.164Z,29.59
2023-05-05T11:53:22.192Z,29.58
2023-05-05T11:54:22.172Z,29.60
2023-05-05T11:55:22.109Z,29.59
2023-05-05T11:56:22.145Z,29.58
2023-05-05T11:58:22.164Z,29.60
2023-05-05T11:59:22.204Z,29.61
2023-05-05T12:00:24.900Z,29.62
2023-05-05T12:03:22.290Z,29.60
2023-05-05T12:04:22.228Z,29.57
2023-05-05T12:05:22.184Z,29.55
2023-05-05T12:06:22.182Z,29.53
2023-05-05T12:07:22.187Z,29.49
2023-05-05T12:08:22.145Z,29.48
2023-05-05T12:09:22.176Z,29.46
2023-05-05T12:10:22.224Z,29.45
2023-05-05T12:11:22.210Z,29.42
2023-05-05T12:12:22.219Z,29.32
2023-05-05T12:13:22.297Z,29.25
2023-05-05T12:14:22.258Z,29.26
2023-05-05T12:17:22.225Z,29.27
2023-05-05T12:18:22.241Z,29.28
2023-05-05T12:19:22.247Z,29.27
2023-05-05T12:20:22.245Z,29.23
2023-05-05T12:22:22.197Z,29.15
2023-05-05T12:23:22.246Z,29.05
2023-05-05T12:24:22.238Z,29.04
2023-05-05T12:25:22.261Z,29.06
2023-05-05T12:26:22.249Z,29.10
2023-05-05T12:27:22.260Z,29.13
2023-05-05T12:28:22.238Z,29.14
2023-05-05T12:29:22.198Z,29.08
2023-05-05T12:30:22.296Z,29.01
2023-05-05T12:31:22.285Z,28.99
2023-05-05T12:32:22.266Z,28.94
2023-05-05T12:33:22.261Z,28.92
2023-05-05T12:34:22.288Z,28.73
2023-05-05T12:35:22.286Z,28.52
2023-05-05T12:36:22.264Z,28.36
2023-05-05T12:37:25.120Z,28.31
2023-05-05T12:38:22.287Z,28.34
2023-05-05T12:39:22.306Z,28.44
2023-05-05T12:40:22.329Z,28.58
2023-05-05T12:41:22.313Z,28.68
2023-05-05T12:42:22.289Z,28.78
2023-05-05T12:43:22.262Z,28.84
2023-05-05T12:44:22.318Z,28.95
2023-05-05T12:45:22.250Z,29.05
2023-05-05T12:46:22.427Z,29.18
2023-05-05T12:47:22.290Z,29.30
2023-05-05T12:48:22.325Z,29.40
2023-05-05T12:49:22.303Z,29.49
2023-05-05T12:50:22.279Z,29.57
2023-05-05T12:51:22.304Z,29.64
2023-05-05T12:52:22.302Z,29.70
2023-05-05T12:53:22.311Z,29.75
2023-05-05T12:56:22.365Z,29.73
2023-05-05T12:57:22.350Z,29.69
2023-05-05T12:58:22.319Z,29.62
2023-05-05T12:59:22.312Z,29.59
2023-05-05T13:00:22.325Z,29.62
2023-05-05T13:01:22.358Z,29.66
2023-05-05T13:02:22.420Z,29.70
2023-05-05T13:03:22.445Z,29.75
2023-05-05T13:04:22.370Z,29.80
2023-05-05T13:05:22.350Z,29.79
2023-05-05T13:06:22.343Z,29.75
2023-05-05T13:07:22.377Z,29.78
2023-05-05T13:08:22.368Z,29.58
2023-05-05T13:09:22.386Z,29.47
2023-05-05T13:10:22.345Z,29.45
2023-05-05T13:11:22.352Z,29.47
2023-05-05T13:12:24.973Z,29.46
2023-05-05T13:14:25.281Z,29.44
2023-05-05T13:16:22.417Z,29.42
2023-05-05T13:17:22.375Z,29.44
2023-05-05T13:18:22.410Z,29.38
2023-05-05T13:19:22.348Z,29.31
2023-05-05T13:20:22.398Z,29.24
2023-05-05T13:21:22.391Z,29.21
2023-05-05T13:22:22.423Z,29.22
2023-05-05T13:24:34.409Z,29.23
2023-05-05T13:26:22.440Z,29.20
2023-05-05T13:27:22.377Z,29.17
2023-05-05T13:28:22.405Z,29.11
2023-05-05T13:29:23.591Z,29.01
2023-05-05T13:30:22.414Z,28.97
2023-05-05T13:31:22.466Z,28.88
2023-05-05T13:32:22.402Z,28.84
2023-05-05T13:33:22.405Z,28.70
2023-05-05T13:34:22.436Z,28.66
2023-05-05T13:35:22.430Z,28.65
2023-05-05T13:36:22.448Z,28.69
2023-05-05T13:37:22.437Z,28.73
2023-05-05T13:38:22.436Z,28.78
2023-05-05T13:39:22.429Z,28.83
2023-05-05T13:40:23.818Z,28.88
2023-05-05T13:41:22.471Z,28.87
2023-05-05T13:42:22.449Z,28.80
2023-05-05T13:43:22.483Z,28.81
2023-05-05T13:44:22.413Z,28.89
2023-05-05T13:45:22.453Z,28.92
2023-05-05T13:46:22.448Z,28.94
2023-05-05T13:47:22.713Z,28.99
2023-05-05T13:48:22.448Z,29.01
2023-05-05T13:49:22.487Z,28.98
2023-05-05T13:51:25.491Z,28.97
2023-05-05T13:52:22.474Z,28.98
2023-05-05T13:53:22.451Z,29.00
2023-05-05T13:54:22.495Z,29.01
2023-05-05T13:55:22.501Z,28.84
2023-05-05T13:56:22.482Z,28.75
2023-05-05T13:57:22.509Z,28.71
2023-05-05T13:58:22.447Z,28.63
2023-05-05T13:59:22.448Z,28.61
2023-05-05T14:01:22.589Z,28.63
2023-05-05T14:02:22.518Z,28.64